createdAt,value
2019-05-02T00:01:13.457Z,20.33
2019-05-02T00:03:44.150Z,19.43
2019-05-02T00:06:14.733Z,20.67
2019-05-02T00:08:45.383Z,21.33
2019-05-02T00:11:16.401Z,21.13
2019-05-02T00:13:46.973Z,20.30
2019-05-02T00:16:18.681Z,20.63
2019-05-02T00:18:49.170Z,20.37
2019-05-02T00:21:20.307Z,19.97
2019-05-02T00:23:50.834Z,21.30
2019-05-02T00:26:24.596Z,21.73
2019-05-02T00:28:53.514Z,21.40
2019-05-02T00:31:24.019Z,20.50
2019-05-02T00:33:54.552Z,21.33
2019-05-02T00:36:25.312Z,20.87
2019-05-02T00:38:55.742Z,20.07
2019-05-02T00:41:26.291Z,20.33
2019-05-02T00:43:57.062Z,20.77
2019-05-02T00:46:30.264Z,20.47
2019-05-02T00:49:01.792Z,20.77
2019-05-02T00:51:32.082Z,19.50
2019-05-02T00:54:02.667Z,20.07
2019-05-02T00:56:33.483Z,20.37
2019-05-02T00:59:07.617Z,18.77
2019-05-02T01:02:00.011Z,20.03
2019-05-02T01:04:30.427Z,20.93
2019-05-02T01:07:00.992Z,20.17
2019-05-02T01:09:32.542Z,19.40
2019-05-02T01:12:08.185Z,20.07
2019-05-02T01:14:35.539Z,20.80
2019-05-02T01:17:06.058Z,20.00
2019-05-02T01:19:36.601Z,20.70
2019-05-02T01:22:10.412Z,20.27
2019-05-02T01:24:41.392Z,19.60
2019-05-02T01:27:36.113Z,19.30
2019-05-02T01:30:18.300Z,19.33
2019-05-02T01:33:13.920Z,18.27
2019-05-02T01:36:05.699Z,18.73
2019-05-02T01:38:38.522Z,19.20
2019-05-02T01:41:09.390Z,18.50
2019-05-02T01:43:39.855Z,18.37
2019-05-02T01:46:10.345Z,18.33
2019-05-02T01:48:45.729Z,16.90
2019-05-02T01:51:14.391Z,17.57
2019-05-02T01:53:44.919Z,17.27
2019-05-02T01:56:15.374Z,16.60
2019-05-02T01:58:46.067Z,17.23
2019-05-02T02:01:21.431Z,17.40
2019-05-02T02:03:48.717Z,16.90
2019-05-02T02:06:19.134Z,16.33
2019-05-02T02:08:49.560Z,16.40
2019-05-02T02:11:20.020Z,16.53
2019-05-02T02:13:50.699Z,15.93
2019-05-02T02:16:21.109Z,14.70
2019-05-02T02:18:58.955Z,13.90
2019-05-02T02:22:02.805Z,14.93
2019-05-02T02:24:55.930Z,13.87
2019-05-02T02:27:25.837Z,14.83
2019-05-02T02:29:57.356Z,13.37
2019-05-02T02:32:28.699Z,14.30
2019-05-02T02:35:03.494Z,13.90
2019-05-02T02:37:31.424Z,14.83
2019-05-02T02:40:01.857Z,13.00
2019-05-02T02:42:34.134Z,13.00
2019-05-02T02:45:13.083Z,13.37
2019-05-02T02:47:43.957Z,13.90
2019-05-02T02:50:14.552Z,13.20
2019-05-02T02:52:47.164Z,12.70
2019-05-02T02:55:22.096Z,12.20
2019-05-02T02:58:04.683Z,12.73
2019-05-02T03:00:31.061Z,12.43
2019-05-02T03:03:01.593Z,12.33
2019-05-02T03:05:32.062Z,12.20
2019-05-02T03:08:05.355Z,11.27
2019-05-02T03:10:40.010Z,12.13
2019-05-02T03:13:25.169Z,12.47
2019-05-02T03:16:00.549Z,11.10
2019-05-02T03:18:39.995Z,10.93
2019-05-02T03:21:02.082Z,11.40
2019-05-02T03:23:32.727Z,11.03
2019-05-02T03:26:07.788Z,11.13
2019-05-02T03:28:35.477Z,10.77
2019-05-02T03:31:21.809Z,11.37
2019-05-02T03:33:53.575Z,12.33
2019-05-02T03:36:27.992Z,11.20
2019-05-02T03:38:46.128Z,10.60
2019-05-02T03:41:20.929Z,11.03
2019-05-02T03:43:50.090Z,11.97
2019-05-02T03:46:22.626Z,11.03
2019-05-02T03:49:05.460Z,11.20
2019-05-02T03:51:25.590Z,10.80
2019-05-02T03:54:06.097Z,11.67
2019-05-02T03:56:29.323Z,11.53
2019-05-02T03:59:03.029Z,11.47
2019-05-02T04:01:41.139Z,11.03
2019-05-02T04:04:06.943Z,11.63
2019-05-02T04:06:37.693Z,11.63
2019-05-02T04:09:08.644Z,10.63
2019-05-02T04:11:40.957Z,9.90
2019-05-02T04:14:17.787Z,10.40
2019-05-02T04:16:48.579Z,9.97
2019-05-02T04:19:16.506Z,9.73
2019-05-02T04:21:51.368Z,10.03
2019-05-02T04:24:19.507Z,10.83
2019-05-02T04:26:53.826Z,10.27
2019-05-02T04:29:24.653Z,9.60
2019-05-02T04:31:55.078Z,10.40
2019-05-02T04:34:27.550Z,10.43
2019-05-02T04:37:01.606Z,10.23
2019-05-02T04:39:30.843Z,10.40
2019-05-02T04:42:05.381Z,10.57
2019-05-02T04:44:40.748Z,10.40
2019-05-02T04:47:17.705Z,10.37
2019-05-02T04:49:39.264Z,10.43
2019-05-02T04:52:12.293Z,10.43
2019-05-02T04:54:42.248Z,10.17
2019-05-02T04:57:12.803Z,9.77
2019-05-02T04:59:43.241Z,9.50
2019-05-02T05:02:14.444Z,9.90
2019-05-02T05:04:48.613Z,9.67
2019-05-02T05:07:17.794Z,9.23
2019-05-02T05:09:57.023Z,8.67
2019-05-02T05:12:20.629Z,8.80
2019-05-02T05:14:51.036Z,8.03
2019-05-02T05:17:25.116Z,8.23
2019-05-02T05:19:53.562Z,9.03
2019-05-02T05:22:24.155Z,8.70
2019-05-02T05:25:01.340Z,8.13
2019-05-02T05:27:32.423Z,8.20
2019-05-02T05:30:11.297Z,8.23
2019-05-02T05:32:37.568Z,9.43
2019-05-02T05:35:12.802Z,9.30
2019-05-02T05:37:43.158Z,9.40
2019-05-02T05:40:13.265Z,9.90
2019-05-02T05:42:43.743Z,8.90
2019-05-02T05:45:14.701Z,8.43
2019-05-02T05:47:45.423Z,8.83
2019-05-02T05:50:17.670Z,8.30
2019-05-02T05:52:51.858Z,9.13
2019-05-02T05:55:24.420Z,8.77
2019-05-02T05:57:59.970Z,8.37
2019-05-02T06:00:27.789Z,9.07
2019-05-02T06:03:09.941Z,7.93
2019-05-02T06:05:33.245Z,8.00
2019-05-02T06:08:03.013Z,8.37
2019-05-02T06:10:33.482Z,8.30
2019-05-02T06:13:05.319Z,7.90
2019-05-02T06:15:39.054Z,7.90
2019-05-02T06:18:09.562Z,7.73
2019-05-02T06:20:40.178Z,7.57
2019-05-02T06:23:10.807Z,7.83
2019-05-02T06:25:42.996Z,8.07
2019-05-02T06:28:13.879Z,7.83
2019-05-02T06:30:44.474Z,7.50
2019-05-02T06:33:16.258Z,7.77
2019-05-02T06:35:46.919Z,7.40
2019-05-02T06:38:21.599Z,7.60
2019-05-02T06:40:50.166Z,7.67
2019-05-02T06:43:20.793Z,6.90
2019-05-02T06:45:51.197Z,8.50
2019-05-02T06:48:22.024Z,7.77
2019-05-02T06:50:52.808Z,7.87
2019-05-02T06:53:23.350Z,8.27
2019-05-02T06:55:57.131Z,8.50
2019-05-02T06:58:27.594Z,8.90
2019-05-02T07:00:59.169Z,8.07
2019-05-02T07:03:29.937Z,8.27
2019-05-02T07:06:02.860Z,8.57
2019-05-02T07:08:33.341Z,9.00
2019-05-02T07:11:04.507Z,9.10
2019-05-02T07:13:36.360Z,9.03
2019-05-02T07:16:30.339Z,10.10
2019-05-02T07:18:55.314Z,10.07
2019-05-02T07:21:26.043Z,9.67
2019-05-02T07:23:56.655Z,9.53
2019-05-02T07:26:27.396Z,9.13
2019-05-02T07:28:58.238Z,9.63
2019-05-02T07:31:29.029Z,9.67
2019-05-02T07:33:59.913Z,9.57
2019-05-02T07:36:31.203Z,9.70
2019-05-02T07:39:05.200Z,10.20
2019-05-02T07:41:37.207Z,11.20
2019-05-02T07:44:07.366Z,10.97
2019-05-02T07:46:50.966Z,9.50
2019-05-02T07:49:11.239Z,10.47
2019-05-02T07:51:41.759Z,10.50
2019-05-02T07:54:12.387Z,10.80
2019-05-02T07:56:43.879Z,10.50
2019-05-02T07:59:18.556Z,10.97
2019-05-02T08:01:49.690Z,11.80
2019-05-02T08:04:19.264Z,12.10
2019-05-02T08:06:50.103Z,10.80
2019-05-02T08:09:20.963Z,11.43
2019-05-02T08:11:51.764Z,11.30
2019-05-02T08:14:22.211Z,10.50
2019-05-02T08:17:04.959Z,11.93
2019-05-02T08:19:25.026Z,11.53
2019-05-02T08:21:56.623Z,10.77
2019-05-02T08:24:27.543Z,11.30
2019-05-02T08:27:36.743Z,11.60
2019-05-02T08:30:09.770Z,11.43
2019-05-02T08:32:40.373Z,11.57
2019-05-02T08:35:11.609Z,12.17
2019-05-02T08:37:43.068Z,12.00
2019-05-02T08:40:15.109Z,12.10
2019-05-02T08:42:45.510Z,12.20
2019-05-02T08:45:16.123Z,12.67
2019-05-02T08:47:47.698Z,12.73
2019-05-02T08:50:18.434Z,13.47
2019-05-02T08:52:50.148Z,12.73
2019-05-02T08:55:20.972Z,12.97
2019-05-02T08:57:51.677Z,13.00
2019-05-02T09:00:22.475Z,13.67
2019-05-02T09:02:57.060Z,13.10
2019-05-02T09:05:25.798Z,13.53
2019-05-02T09:07:56.716Z,13.07
2019-05-02T09:10:27.257Z,14.50
2019-05-02T09:12:57.829Z,14.10
2019-05-02T09:15:28.275Z,13.80
2019-05-02T09:17:58.686Z,14.47
2019-05-02T09:20:29.487Z,15.77
2019-05-02T09:23:01.658Z,14.63
2019-05-02T09:25:32.488Z,14.07
2019-05-02T09:28:02.941Z,14.30
2019-05-02T09:30:34.442Z,14.87
2019-05-02T09:33:07.033Z,15.43
2019-05-02T09:35:38.053Z,14.87
2019-05-02T09:38:09.534Z,15.37
2019-05-02T09:40:40.060Z,15.57
2019-05-02T09:43:22.860Z,15.20
2019-05-02T09:45:53.497Z,14.23
2019-05-02T09:48:26.817Z,15.23
2019-05-02T09:50:57.873Z,14.27
2019-05-02T09:53:28.161Z,15.00
2019-05-02T09:55:58.842Z,15.53
2019-05-02T09:58:29.258Z,15.03
2019-05-02T10:01:05.817Z,15.40
2019-05-02T10:03:38.604Z,15.13
2019-05-02T10:06:16.450Z,15.20
2019-05-02T10:08:45.495Z,15.93
2019-05-02T10:11:16.904Z,15.63
2019-05-02T10:13:48.445Z,16.37
2019-05-02T10:16:23.478Z,15.83
2019-05-02T10:18:52.985Z,16.47
2019-05-02T10:21:23.915Z,16.47
2019-05-02T10:23:59.471Z,15.47
2019-05-02T10:26:28.285Z,15.50
2019-05-02T10:29:02.014Z,15.70
2019-05-02T10:31:37.484Z,16.53
2019-05-02T10:34:08.577Z,15.47
2019-05-02T10:36:37.450Z,16.00
2019-05-02T10:39:08.373Z,17.13
2019-05-02T10:41:40.948Z,16.30
2019-05-02T10:44:12.829Z,17.37
2019-05-02T10:49:52.904Z,15.60
2019-05-02T10:52:29.804Z,16.27
2019-05-02T10:54:59.428Z,15.53
2019-05-02T10:57:32.552Z,16.30
2019-05-02T11:00:07.191Z,16.47
2019-05-02T11:02:55.963Z,16.17
2019-05-02T11:05:26.814Z,16.83
2019-05-02T11:08:04.788Z,16.77
2019-05-02T11:10:45.807Z,16.60
2019-05-02T11:13:35.516Z,16.10
2019-05-02T11:16:28.995Z,16.80
2019-05-02T11:19:21.914Z,13.83
2019-05-02T11:21:58.708Z,15.53
2019-05-02T11:24:26.631Z,15.60
2019-05-02T11:27:12.823Z,15.50
2019-05-02T11:29:52.623Z,15.37
2019-05-02T11:32:28.044Z,14.43
2019-05-02T11:34:59.884Z,16.03
2019-05-02T11:37:34.070Z,15.53
2019-05-02T11:40:12.853Z,14.33
2019-05-02T11:42:43.622Z,15.57
2019-05-02T11:45:14.159Z,14.43
2019-05-02T11:47:44.562Z,15.33
2019-05-02T11:50:15.402Z,15.00
2019-05-02T11:52:52.322Z,15.53
2019-05-02T11:55:23.359Z,16.20
2019-05-02T11:57:54.605Z,16.70
2019-05-02T12:00:26.893Z,15.17
2019-05-02T12:03:35.552Z,15.60
2019-05-02T12:06:10.959Z,15.57
2019-05-02T12:08:44.990Z,17.23
2019-05-02T12:11:17.421Z,16.13
2019-05-02T12:13:54.793Z,15.10
2019-05-02T12:16:32.284Z,14.83
2019-05-02T12:19:11.459Z,14.60
2019-05-02T12:21:44.901Z,14.93
2019-05-02T12:24:15.437Z,14.98
2019-05-02T12:26:46.624Z,15.28
2019-05-02T12:29:17.425Z,15.23
2019-05-02T12:31:52.686Z,15.20
2019-05-02T12:34:21.999Z,15.53
2019-05-02T12:36:52.748Z,15.53
2019-05-02T12:39:25.026Z,16.30
2019-05-02T12:41:56.284Z,15.17
2019-05-02T12:44:27.351Z,14.67
2019-05-02T12:46:58.279Z,15.40
2019-05-02T12:49:32.339Z,15.53
2019-05-02T12:52:03.592Z,15.57
2019-05-02T12:54:34.856Z,16.53
2019-05-02T12:57:05.685Z,15.80
2019-05-02T12:59:37.450Z,16.10
2019-05-02T13:02:13.158Z,15.03
2019-05-02T13:04:44.368Z,15.83
2019-05-02T13:07:15.733Z,14.97
2019-05-02T13:09:46.131Z,15.40
2019-05-02T13:12:22.778Z,14.55
2019-05-02T13:14:57.863Z,13.50
2019-05-02T13:17:29.461Z,13.60
2019-05-02T13:20:03.567Z,13.65
2019-05-02T13:22:42.059Z,13.40
2019-05-02T13:25:15.212Z,13.10
2019-05-02T13:27:48.336Z,12.87
2019-05-02T13:30:32.833Z,12.60
2019-05-02T13:33:03.675Z,13.20
2019-05-02T13:35:43.204Z,13.23
2019-05-02T13:38:15.639Z,12.47
2019-05-02T13:40:46.555Z,13.20
2019-05-02T13:43:18.362Z,12.35
2019-05-02T13:46:06.083Z,13.00
2019-05-02T13:48:37.745Z,11.90
2019-05-02T13:51:08.507Z,12.70
2019-05-02T13:53:52.174Z,12.00
2019-05-02T13:56:52.809Z,11.60
2019-05-02T13:59:23.847Z,11.40
2019-05-02T14:01:55.897Z,12.37
2019-05-02T14:04:26.856Z,11.10
2019-05-02T14:06:57.957Z,11.00
2019-05-02T14:09:58.113Z,11.35
2019-05-02T14:12:31.947Z,11.80
2019-05-02T14:15:03.073Z,12.27
2019-05-02T14:17:33.642Z,11.45
2019-05-02T14:20:10.341Z,12.18
2019-05-02T14:22:36.622Z,12.13
2019-05-02T14:25:07.580Z,13.23
2019-05-02T14:27:38.011Z,12.93
2019-05-02T14:30:09.314Z,14.10
2019-05-02T14:32:39.903Z,13.45
2019-05-02T14:35:24.054Z,14.05
2019-05-02T14:38:10.438Z,14.38
2019-05-02T14:41:04.441Z,14.28
2019-05-02T14:43:53.319Z,14.10
2019-05-02T14:46:35.468Z,14.13
2019-05-02T14:48:58.766Z,15.23
2019-05-02T14:51:29.415Z,14.60
2019-05-02T14:54:03.639Z,15.00
2019-05-02T14:56:57.534Z,15.75
2019-05-02T14:59:29.324Z,15.90
2019-05-02T15:02:05.767Z,15.60
2019-05-02T15:04:38.147Z,15.68
2019-05-02T15:07:07.825Z,15.20
2019-05-02T15:09:39.491Z,16.27
2019-05-02T15:12:15.804Z,15.60
2019-05-02T15:14:43.353Z,15.23
2019-05-02T15:17:14.063Z,16.80
2019-05-02T15:19:45.321Z,15.58
2019-05-02T15:22:16.028Z,16.50
2019-05-02T15:24:46.735Z,16.40
2019-05-02T15:27:17.972Z,14.97
2019-05-02T15:29:55.406Z,16.57
2019-05-02T15:32:32.462Z,17.10
2019-05-02T15:35:12.948Z,15.67
2019-05-02T15:37:43.723Z,16.77
2019-05-02T15:42:56.658Z,16.97
2019-05-02T15:45:54.171Z,16.52
2019-05-02T15:48:27.461Z,18.73
2019-05-02T15:51:00.198Z,17.57
2019-05-02T15:53:44.516Z,17.80
2019-05-02T15:56:19.769Z,16.80
2019-05-02T15:58:45.773Z,17.07
2019-05-02T16:01:23.826Z,17.00
2019-05-02T16:03:55.006Z,17.35
2019-05-02T16:06:30.770Z,17.63
2019-05-02T16:08:57.906Z,16.57
2019-05-02T16:11:28.392Z,17.52
2019-05-02T16:13:58.858Z,17.35
2019-05-02T16:16:29.258Z,17.10
2019-05-02T16:19:02.008Z,17.37
2019-05-02T16:21:42.632Z,17.02
2019-05-02T16:24:19.835Z,18.10
2019-05-02T16:26:52.932Z,18.30
2019-05-02T16:29:28.119Z,17.55
2019-05-02T16:32:15.755Z,17.32
2019-05-02T16:34:55.036Z,18.65
2019-05-02T16:37:26.829Z,18.48
2019-05-02T16:39:57.502Z,18.30
2019-05-02T16:42:28.011Z,18.65
2019-05-02T16:44:58.442Z,20.27
2019-05-02T16:47:28.926Z,19.77
2019-05-02T16:49:59.346Z,19.73
2019-05-02T16:52:29.793Z,20.63
2019-05-02T16:55:02.894Z,21.13
2019-05-02T16:57:35.147Z,19.48
2019-05-02T17:00:07.370Z,21.30
2019-05-02T17:02:43.550Z,21.83
2019-05-02T17:05:12.952Z,20.53
2019-05-02T17:08:10.457Z,21.60
2019-05-02T17:10:47.339Z,20.83
2019-05-02T17:13:19.046Z,21.17
2019-05-02T17:15:50.023Z,20.70
2019-05-02T17:18:22.620Z,21.77
2019-05-02T17:20:56.868Z,21.83
2019-05-02T17:23:26.987Z,19.80
2019-05-02T17:26:01.767Z,21.73
2019-05-02T17:28:38.009Z,21.60
2019-05-02T17:31:10.751Z,20.10
2019-05-02T17:33:41.672Z,21.40
2019-05-02T17:36:13.180Z,20.82
2019-05-02T17:38:43.653Z,20.33
2019-05-02T17:41:14.918Z,20.25
2019-05-02T17:43:45.354Z,20.10
2019-05-02T17:46:18.341Z,21.20
2019-05-02T17:48:55.270Z,20.60
2019-05-02T17:51:37.702Z,20.10
2019-05-02T17:54:08.972Z,19.37
2019-05-02T17:56:42.024Z,20.72
2019-05-02T18:03:02.646Z,19.10
2019-05-02T18:05:35.669Z,18.67
2019-05-02T18:08:10.733Z,18.90
2019-05-02T18:10:38.921Z,19.15
2019-05-02T18:13:12.005Z,19.05
2019-05-02T18:15:42.354Z,17.77
2019-05-02T18:18:13.637Z,19.90
2019-05-02T18:20:46.518Z,20.43
2019-05-02T18:23:18.702Z,19.83
2019-05-02T18:25:49.786Z,20.70
2019-05-02T18:28:24.548Z,19.83
2019-05-02T18:31:02.765Z,20.87
2019-05-02T18:33:30.127Z,21.50
2019-05-02T18:36:01.937Z,21.27
2019-05-02T18:38:33.322Z,22.17
2019-05-02T18:41:05.837Z,23.07
2019-05-02T18:43:42.645Z,23.00
2019-05-02T18:46:09.627Z,21.85
2019-05-02T18:48:42.095Z,23.00
2019-05-02T18:51:17.155Z,23.33
2019-05-02T18:53:45.756Z,23.62
2019-05-02T18:56:16.665Z,23.62
2019-05-02T18:58:47.680Z,24.03
2019-05-02T19:01:20.861Z,24.37
2019-05-02T19:03:52.563Z,23.57
2019-05-02T19:06:27.987Z,23.63
2019-05-02T19:09:02.169Z,23.95
2019-05-02T19:11:35.373Z,22.37
2019-05-02T19:14:06.317Z,23.77
2019-05-02T19:16:37.263Z,24.27
2019-05-02T19:19:08.176Z,24.17
2019-05-02T19:21:39.652Z,23.50
2019-05-02T19:24:10.663Z,23.20
2019-05-02T19:26:49.026Z,22.77
2019-05-02T19:29:23.995Z,22.77
2019-05-02T19:31:55.178Z,22.40
2019-05-02T19:34:26.955Z,23.13
2019-05-02T19:37:02.885Z,23.17
2019-05-02T19:39:32.241Z,23.33
2019-05-02T19:42:03.675Z,22.57
2019-05-02T19:44:34.908Z,23.12
2019-05-02T19:47:08.322Z,23.32
2019-05-02T19:49:38.581Z,21.87
2019-05-02T19:52:10.150Z,23.50
2019-05-02T19:54:41.669Z,23.60
2019-05-02T19:57:17.090Z,21.23
2019-05-02T19:59:46.080Z,21.53
2019-05-02T20:02:17.292Z,20.87
2019-05-02T20:04:56.992Z,21.40
2019-05-02T20:07:32.555Z,20.47
2019-05-02T20:10:03.530Z,21.33
2019-05-02T20:12:42.426Z,20.67
2019-05-02T20:15:12.122Z,19.90
2019-05-02T20:17:43.400Z,21.10
2019-05-02T20:20:40.541Z,21.13
2019-05-02T20:23:16.162Z,20.77
2019-05-02T20:25:43.652Z,20.37
2019-05-02T20:28:14.579Z,20.57
2019-05-02T20:30:45.798Z,15.93
2019-05-02T20:33:16.788Z,14.85
2019-05-02T20:35:47.638Z,12.60
2019-05-02T20:38:18.560Z,12.67
2019-05-02T20:40:49.450Z,12.43
2019-05-02T20:43:22.467Z,12.20
2019-05-02T20:45:53.188Z,12.50
2019-05-02T20:48:24.064Z,10.00
2019-05-02T20:50:55.072Z,9.73
2019-05-02T20:53:30.824Z,9.77
2019-05-02T20:55:58.420Z,10.63
2019-05-02T20:58:29.420Z,10.53
2019-05-02T21:01:07.938Z,9.77
2019-05-02T21:03:32.999Z,9.60
2019-05-02T21:06:37.473Z,10.17
2019-05-02T21:09:23.440Z,10.07
2019-05-02T21:12:02.037Z,9.50
2019-05-02T21:14:32.733Z,9.83
2019-05-02T21:17:03.661Z,9.30
2019-05-02T21:19:34.575Z,9.73
2019-05-02T21:22:09.895Z,9.57
2019-05-02T21:24:42.053Z,9.23
2019-05-02T21:27:12.875Z,9.43
2019-05-02T21:29:43.736Z,9.67
2019-05-02T21:32:14.988Z,9.50
2019-05-02T21:34:45.841Z,8.93
2019-05-02T21:37:16.661Z,9.20
2019-05-02T21:39:47.511Z,9.03
2019-05-02T21:42:18.502Z,9.27
2019-05-02T21:44:51.622Z,9.00
2019-05-02T21:47:22.613Z,8.67
2019-05-02T21:50:07.712Z,8.70
2019-05-02T21:53:06.625Z,8.07
2019-05-02T21:55:47.401Z,7.93
2019-05-02T21:58:18.145Z,7.17
2019-05-02T22:01:06.041Z,6.73
2019-05-02T22:03:37.293Z,5.77
2019-05-02T22:06:08.143Z,6.47
2019-05-02T22:08:38.984Z,4.73
2019-05-02T22:11:11.989Z,3.23
2019-05-02T22:13:42.430Z,2.93
2019-05-02T22:16:13.447Z,2.80
2019-05-02T22:18:44.194Z,2.97
2019-05-02T22:21:14.983Z,2.70
2019-05-02T22:23:45.832Z,2.97
2019-05-02T22:26:16.585Z,2.30
2019-05-02T22:28:47.402Z,2.70
2019-05-02T22:31:18.440Z,2.10
2019-05-02T22:33:49.307Z,2.27
2019-05-02T22:36:21.818Z,2.47
2019-05-02T22:39:03.493Z,2.67
2019-05-02T22:41:35.172Z,2.60
2019-05-02T22:44:06.047Z,2.70
2019-05-02T22:46:46.513Z,2.50
2019-05-02T22:49:17.486Z,2.63
2019-05-02T22:51:48.521Z,2.43
2019-05-02T22:54:27.852Z,2.40
2019-05-02T22:56:52.905Z,2.60
2019-05-02T22:59:23.972Z,2.70
2019-05-02T23:01:55.166Z,2.93
2019-05-02T23:04:25.918Z,3.10
2019-05-02T23:06:58.166Z,2.57
2019-05-02T23:09:28.951Z,3.00
2019-05-02T23:11:59.657Z,2.77
2019-05-02T23:14:32.364Z,3.10
2019-05-02T23:17:02.857Z,2.87
2019-05-02T23:19:33.589Z,2.90
2019-05-02T23:22:05.183Z,2.53
2019-05-02T23:25:03.931Z,2.70
2019-05-02T23:27:47.469Z,2.73
2019-05-02T23:30:22.535Z,2.53
2019-05-02T23:32:53.495Z,2.93
2019-05-02T23:35:24.512Z,2.57
2019-05-02T23:37:55.249Z,2.60
2019-05-02T23:40:26.058Z,2.67
2019-05-02T23:42:57.035Z,2.73
2019-05-02T23:45:28.145Z,2.80
2019-05-02T23:47:59.003Z,3.33
2019-05-02T23:50:30.127Z,2.80
2019-05-02T23:53:02.334Z,3.03
2019-05-02T23:55:33.401Z,3.20
2019-05-02T23:58:04.175Z,3.20
